sensor_id;sensor_type;location;lat;lon;timestamp;temperature;humidity
15426;DHT22;7812;50.072;7.036;2022-09-09T00:02:21;13.70;99.90
15426;DHT22;7812;50.072;7.036;2022-09-09T00:05:00;13.70;99.90
15426;DHT22;7812;50.072;7.036;2022-09-09T00:10:33;13.60;99.90
15426;DHT22;7812;50.072;7.036;2022-09-09T00:15:50;13.50;99.90
15426;DHT22;7812;50.072;7.036;2022-09-09T00:21:01;13.50;99.90
15426;DHT22;7812;50.072;7.036;2022-09-09T00:23:39;13.50;99.90
15426;DHT22;7812;50.072;7.036;2022-09-09T00:28:55;13.50;99.90
15426;DHT22;7812;50.072;7.036;2022-09-09T00:31:28;13.50;99.90
15426;DHT22;7812;50.072;7.036;2022-09-09T00:33:56;13.50;99.90
15426;DHT22;7812;50.072;7.036;2022-09-09T00:36:25;13.40;99.90
15426;DHT22;7812;50.072;7.036;2022-09-09T00:38:59;13.40;99.90
15426;DHT22;7812;50.072;7.036;2022-09-09T00:44:36;13.30;99.90
15426;DHT22;7812;50.072;7.036;2022-09-09T00:52:56;13.30;99.90
15426;DHT22;7812;50.072;7.036;2022-09-09T00:58:16;13.30;99.90
15426;DHT22;7812;50.072;7.036;2022-09-09T01:00:44;13.40;99.90
15426;DHT22;7812;50.072;7.036;2022-09-09T01:06:34;13.40;99.90
15426;DHT22;7812;50.072;7.036;2022-09-09T01:09:27;13.40;99.90
15426;DHT22;7812;50.072;7.036;2022-09-09T01:12:23;13.50;99.90
15426;DHT22;7812;50.072;7.036;2022-09-09T01:14:52;13.40;99.90
15426;DHT22;7812;50.072;7.036;2022-09-09T01:17:58;13.40;99.90
15426;DHT22;7812;50.072;7.036;2022-09-09T01:26:31;13.40;99.90
15426;DHT22;7812;50.072;7.036;2022-09-09T01:28:59;13.40;99.90
15426;DHT22;7812;50.072;7.036;2022-09-09T01:32:02;13.40;99.90
15426;DHT22;7812;50.072;7.036;2022-09-09T01:34:35;13.30;99.90
15426;DHT22;7812;50.072;7.036;2022-09-09T01:37:09;13.30;99.90
15426;DHT22;7812;50.072;7.036;2022-09-09T01:39:37;13.30;99.90
15426;DHT22;7812;50.072;7.036;2022-09-09T01:42:06;13.30;99.90
15426;DHT22;7812;50.072;7.036;2022-09-09T01:44:34;13.20;99.90
15426;DHT22;7812;50.072;7.036;2022-09-09T01:47:01;13.20;99.90
15426;DHT22;7812;50.072;7.036;2022-09-09T01:49:27;13.40;99.90
15426;DHT22;7812;50.072;7.036;2022-09-09T01:51:54;13.40;99.90
15426;DHT22;7812;50.072;7.036;2022-09-09T01:54:23;13.50;99.90
15426;DHT22;7812;50.072;7.036;2022-09-09T02:00:05;13.60;99.90
15426;DHT22;7812;50.072;7.036;2022-09-09T02:03:00;13.50;99.90
15426;DHT22;7812;50.072;7.036;2022-09-09T02:08:42;13.50;99.90
15426;DHT22;7812;50.072;7.036;2022-09-09T02:11:18;13.50;99.90
15426;DHT22;7812;50.072;7.036;2022-09-09T02:13:47;13.40;99.90
15426;DHT22;7812;50.072;7.036;2022-09-09T02:16:22;13.40;99.90
15426;DHT22;7812;50.072;7.036;2022-09-09T02:19:02;13.40;99.90
15426;DHT22;7812;50.072;7.036;2022-09-09T02:21:30;13.40;99.90
15426;DHT22;7812;50.072;7.036;2022-09-09T02:23:59;13.30;99.90
15426;DHT22;7812;50.072;7.036;2022-09-09T02:26:26;13.30;99.90
15426;DHT22;7812;50.072;7.036;2022-09-09T02:28:55;13.30;99.90
15426;DHT22;7812;50.072;7.036;2022-09-09T02:31:22;13.30;99.90
15426;DHT22;7812;50.072;7.036;2022-09-09T02:33:55;13.40;99.90
15426;DHT22;7812;50.072;7.036;2022-09-09T02:36:24;13.40;99.90
15426;DHT22;7812;50.072;7.036;2022-09-09T02:38:51;13.30;99.90
15426;DHT22;7812;50.072;7.036;2022-09-09T02:41:22;13.20;99.90
15426;DHT22;7812;50.072;7.036;2022-09-09T02:43:49;13.30;99.90
15426;DHT22;7812;50.072;7.036;2022-09-09T02:51:51;13.30;99.90
15426;DHT22;7812;50.072;7.036;2022-09-09T02:54:29;13.40;99.90
15426;DHT22;7812;50.072;7.036;2022-09-09T02:57:03;13.40;99.90
15426;DHT22;7812;50.072;7.036;2022-09-09T02:59:30;13.30;99.90
15426;DHT22;7812;50.072;7.036;2022-09-09T03:01:56;13.30;99.90
15426;DHT22;7812;50.072;7.036;2022-09-09T03:04:22;13.30;99.90
15426;DHT22;7812;50.072;7.036;2022-09-09T03:06:50;13.20;99.90
15426;DHT22;7812;50.072;7.036;2022-09-09T03:09:16;13.20;99.90
15426;DHT22;7812;50.072;7.036;2022-09-09T03:11:42;13.10;99.90
15426;DHT22;7812;50.072;7.036;2022-09-09T03:14:08;13.10;99.90
15426;DHT22;7812;50.072;7.036;2022-09-09T03:16:33;13.10;99.90
15426;DHT22;7812;50.072;7.036;2022-09-09T03:19:00;13.10;99.90
15426;DHT22;7812;50.072;7.036;2022-09-09T03:21:26;13.10;99.90
15426;DHT22;7812;50.072;7.036;2022-09-09T03:23:52;13.10;99.90
15426;DHT22;7812;50.072;7.036;2022-09-09T03:26:17;13.00;99.90
15426;DHT22;7812;50.072;7.036;2022-09-09T03:28:43;13.10;99.90
15426;DHT22;7812;50.072;7.036;2022-09-09T03:31:10;13.30;99.90
15426;DHT22;7812;50.072;7.036;2022-09-09T03:33:37;13.40;99.90
15426;DHT22;7812;50.072;7.036;2022-09-09T03:36:09;13.40;99.90
15426;DHT22;7812;50.072;7.036;2022-09-09T03:38:35;13.30;99.90
15426;DHT22;7812;50.072;7.036;2022-09-09T03:41:01;13.30;99.90
15426;DHT22;7812;50.072;7.036;2022-09-09T03:43:28;13.40;99.90
15426;DHT22;7812;50.072;7.036;2022-09-09T03:45:55;13.40;99.90
15426;DHT22;7812;50.072;7.036;2022-09-09T03:48:23;13.40;99.90
15426;DHT22;7812;50.072;7.036;2022-09-09T03:50:52;13.50;99.90
15426;DHT22;7812;50.072;7.036;2022-09-09T03:53:19;13.50;99.90
15426;DHT22;7812;50.072;7.036;2022-09-09T03:55:46;13.70;99.90
15426;DHT22;7812;50.072;7.036;2022-09-09T03:58:16;13.70;99.90
15426;DHT22;7812;50.072;7.036;2022-09-09T04:01:25;13.60;99.90
15426;DHT22;7812;50.072;7.036;2022-09-09T04:03:44;13.50;99.90
15426;DHT22;7812;50.072;7.036;2022-09-09T04:06:11;13.50;99.90
15426;DHT22;7812;50.072;7.036;2022-09-09T04:08:38;13.60;99.90
15426;DHT22;7812;50.072;7.036;2022-09-09T04:11:05;13.70;99.90
15426;DHT22;7812;50.072;7.036;2022-09-09T04:13:34;13.70;99.90
15426;DHT22;7812;50.072;7.036;2022-09-09T04:16:02;13.70;99.90
15426;DHT22;7812;50.072;7.036;2022-09-09T04:18:29;13.80;99.90
15426;DHT22;7812;50.072;7.036;2022-09-09T04:20:55;13.80;99.90
15426;DHT22;7812;50.072;7.036;2022-09-09T04:23:23;13.70;99.90
15426;DHT22;7812;50.072;7.036;2022-09-09T04:25:51;13.80;99.90
15426;DHT22;7812;50.072;7.036;2022-09-09T04:28:18;13.80;99.90
15426;DHT22;7812;50.072;7.036;2022-09-09T04:30:45;13.90;99.90
15426;DHT22;7812;50.072;7.036;2022-09-09T04:33:13;13.80;99.90
15426;DHT22;7812;50.072;7.036;2022-09-09T04:35:44;13.90;99.90
15426;DHT22;7812;50.072;7.036;2022-09-09T04:38:11;13.80;99.90
15426;DHT22;7812;50.072;7.036;2022-09-09T04:40:36;13.90;99.90
15426;DHT22;7812;50.072;7.036;2022-09-09T04:43:03;13.90;99.90
15426;DHT22;7812;50.072;7.036;2022-09-09T04:45:31;13.80;99.90
15426;DHT22;7812;50.072;7.036;2022-09-09T04:47:57;13.90;99.90
15426;DHT22;7812;50.072;7.036;2022-09-09T04:50:23;13.90;99.90
15426;DHT22;7812;50.072;7.036;2022-09-09T04:52:49;14.00;99.90
15426;DHT22;7812;50.072;7.036;2022-09-09T04:55:14;14.10;99.90
15426;DHT22;7812;50.072;7.036;2022-09-09T04:57:40;13.90;99.90
15426;DHT22;7812;50.072;7.036;2022-09-09T05:00:07;13.90;99.90
15426;DHT22;7812;50.072;7.036;2022-09-09T05:02:37;13.90;99.90
15426;DHT22;7812;50.072;7.036;2022-09-09T05:05:04;14.00;99.90
15426;DHT22;7812;50.072;7.036;2022-09-09T05:07:30;14.10;99.90
15426;DHT22;7812;50.072;7.036;2022-09-09T05:09:56;14.20;99.90
15426;DHT22;7812;50.072;7.036;2022-09-09T05:12:22;14.20;99.90
15426;DHT22;7812;50.072;7.036;2022-09-09T05:14:51;14.30;99.90
15426;DHT22;7812;50.072;7.036;2022-09-09T05:17:17;14.30;99.90
15426;DHT22;7812;50.072;7.036;2022-09-09T05:19:43;14.20;99.90
15426;DHT22;7812;50.072;7.036;2022-09-09T05:22:09;14.20;99.90
15426;DHT22;7812;50.072;7.036;2022-09-09T05:24:37;14.30;99.90
15426;DHT22;7812;50.072;7.036;2022-09-09T05:27:03;14.30;99.90
15426;DHT22;7812;50.072;7.036;2022-09-09T05:29:31;14.20;99.90
15426;DHT22;7812;50.072;7.036;2022-09-09T05:31:59;14.20;99.90
15426;DHT22;7812;50.072;7.036;2022-09-09T05:34:24;14.20;99.90
15426;DHT22;7812;50.072;7.036;2022-09-09T05:36:50;14.20;99.90
15426;DHT22;7812;50.072;7.036;2022-09-09T05:39:17;14.20;99.90
15426;DHT22;7812;50.072;7.036;2022-09-09T05:41:43;14.30;99.90
15426;DHT22;7812;50.072;7.036;2022-09-09T05:44:09;14.40;99.90
15426;DHT22;7812;50.072;7.036;2022-09-09T05:46:35;14.50;99.90
15426;DHT22;7812;50.072;7.036;2022-09-09T05:49:02;14.50;99.90
15426;DHT22;7812;50.072;7.036;2022-09-09T05:51:28;14.50;99.90
15426;DHT22;7812;50.072;7.036;2022-09-09T05:53:55;14.50;99.90
15426;DHT22;7812;50.072;7.036;2022-09-09T05:56:25;14.60;99.90
15426;DHT22;7812;50.072;7.036;2022-09-09T05:58:52;14.70;99.90
15426;DHT22;7812;50.072;7.036;2022-09-09T06:01:32;14.70;99.90
15426;DHT22;7812;50.072;7.036;2022-09-09T06:03:58;14.60;99.90
15426;DHT22;7812;50.072;7.036;2022-09-09T06:06:26;14.60;99.90
15426;DHT22;7812;50.072;7.036;2022-09-09T06:08:53;14.70;99.90
15426;DHT22;7812;50.072;7.036;2022-09-09T06:11:26;15.00;99.90
15426;DHT22;7812;50.072;7.036;2022-09-09T06:13:52;15.30;99.90
15426;DHT22;7812;50.072;7.036;2022-09-09T06:16:21;15.50;99.90
15426;DHT22;7812;50.072;7.036;2022-09-09T06:18:49;15.70;99.90
15426;DHT22;7812;50.072;7.036;2022-09-09T06:21:18;15.50;99.90
15426;DHT22;7812;50.072;7.036;2022-09-09T06:23:45;15.50;99.90
15426;DHT22;7812;50.072;7.036;2022-09-09T06:26:21;15.40;99.90
15426;DHT22;7812;50.072;7.036;2022-09-09T06:28:49;15.50;99.90
15426;DHT22;7812;50.072;7.036;2022-09-09T06:31:17;15.50;99.90
15426;DHT22;7812;50.072;7.036;2022-09-09T06:33:47;15.70;99.90
15426;DHT22;7812;50.072;7.036;2022-09-09T06:36:25;16.50;99.90
15426;DHT22;7812;50.072;7.036;2022-09-09T06:38:51;17.30;99.90
15426;DHT22;7812;50.072;7.036;2022-09-09T06:41:19;18.30;99.90
15426;DHT22;7812;50.072;7.036;2022-09-09T06:43:48;19.00;99.90
15426;DHT22;7812;50.072;7.036;2022-09-09T06:46:18;18.90;99.90
15426;DHT22;7812;50.072;7.036;2022-09-09T06:48:45;18.40;99.90
15426;DHT22;7812;50.072;7.036;2022-09-09T06:51:13;18.20;99.90
15426;DHT22;7812;50.072;7.036;2022-09-09T06:53:41;18.20;99.90
15426;DHT22;7812;50.072;7.036;2022-09-09T06:58:45;18.80;99.90
15426;DHT22;7812;50.072;7.036;2022-09-09T07:01:13;18.50;99.90
15426;DHT22;7812;50.072;7.036;2022-09-09T07:03:40;18.40;99.90
15426;DHT22;7812;50.072;7.036;2022-09-09T07:06:06;18.00;99.90
15426;DHT22;7812;50.072;7.036;2022-09-09T07:08:33;17.70;99.90
15426;DHT22;7812;50.072;7.036;2022-09-09T07:11:03;17.50;99.90
15426;DHT22;7812;50.072;7.036;2022-09-09T07:13:33;17.30;99.90
15426;DHT22;7812;50.072;7.036;2022-09-09T07:16:06;17.00;99.90
15426;DHT22;7812;50.072;7.036;2022-09-09T07:18:33;17.10;99.90
15426;DHT22;7812;50.072;7.036;2022-09-09T07:21:00;17.10;99.90
15426;DHT22;7812;50.072;7.036;2022-09-09T07:23:27;17.80;99.90
15426;DHT22;7812;50.072;7.036;2022-09-09T07:25:54;18.70;99.90
15426;DHT22;7812;50.072;7.036;2022-09-09T07:28:21;19.40;99.90
15426;DHT22;7812;50.072;7.036;2022-09-09T07:30:55;19.70;99.90
15426;DHT22;7812;50.072;7.036;2022-09-09T07:33:21;19.80;99.90
15426;DHT22;7812;50.072;7.036;2022-09-09T07:35:47;19.50;99.90
15426;DHT22;7812;50.072;7.036;2022-09-09T07:38:12;19.80;99.90
15426;DHT22;7812;50.072;7.036;2022-09-09T07:40:38;20.10;99.90
15426;DHT22;7812;50.072;7.036;2022-09-09T07:43:04;19.20;99.90
15426;DHT22;7812;50.072;7.036;2022-09-09T07:45:30;18.30;99.90
15426;DHT22;7812;50.072;7.036;2022-09-09T07:47:58;17.80;99.90
15426;DHT22;7812;50.072;7.036;2022-09-09T07:50:24;18.60;99.90
15426;DHT22;7812;50.072;7.036;2022-09-09T07:52:51;19.50;99.90
15426;DHT22;7812;50.072;7.036;2022-09-09T07:55:17;19.10;99.90
15426;DHT22;7812;50.072;7.036;2022-09-09T07:57:43;19.10;99.90
15426;DHT22;7812;50.072;7.036;2022-09-09T08:00:09;18.60;99.90
15426;DHT22;7812;50.072;7.036;2022-09-09T08:02:35;18.40;99.90
15426;DHT22;7812;50.072;7.036;2022-09-09T08:05:01;18.10;99.90
15426;DHT22;7812;50.072;7.036;2022-09-09T08:07:27;18.10;99.90
15426;DHT22;7812;50.072;7.036;2022-09-09T08:09:54;17.80;99.90
15426;DHT22;7812;50.072;7.036;2022-09-09T08:12:21;17.70;99.90
15426;DHT22;7812;50.072;7.036;2022-09-09T08:14:46;17.90;99.90
15426;DHT22;7812;50.072;7.036;2022-09-09T08:17:14;19.50;99.90
15426;DHT22;7812;50.072;7.036;2022-09-09T08:19:40;21.30;99.90
15426;DHT22;7812;50.072;7.036;2022-09-09T08:22:06;22.20;99.90
15426;DHT22;7812;50.072;7.036;2022-09-09T08:24:33;22.80;99.90
15426;DHT22;7812;50.072;7.036;2022-09-09T08:26:59;22.30;99.90
15426;DHT22;7812;50.072;7.036;2022-09-09T08:29:24;22.10;99.90
15426;DHT22;7812;50.072;7.036;2022-09-09T08:31:55;22.30;99.90
15426;DHT22;7812;50.072;7.036;2022-09-09T08:34:23;21.70;99.90
15426;DHT22;7812;50.072;7.036;2022-09-09T08:36:50;21.00;99.90
15426;DHT22;7812;50.072;7.036;2022-09-09T08:39:18;19.80;99.90
15426;DHT22;7812;50.072;7.036;2022-09-09T08:49:43;18.70;99.90
15426;DHT22;7812;50.072;7.036;2022-09-09T08:52:36;19.00;99.90
15426;DHT22;7812;50.072;7.036;2022-09-09T08:57:39;21.60;99.90
15426;DHT22;7812;50.072;7.036;2022-09-09T09:00:07;22.40;99.90
15426;DHT22;7812;50.072;7.036;2022-09-09T09:08:28;22.10;99.90
15426;DHT22;7812;50.072;7.036;2022-09-09T09:10:57;22.10;99.90
15426;DHT22;7812;50.072;7.036;2022-09-09T09:16:02;24.30;99.90
15426;DHT22;7812;50.072;7.036;2022-09-09T09:18:32;24.30;99.90
15426;DHT22;7812;50.072;7.036;2022-09-09T09:21:07;23.50;99.90
15426;DHT22;7812;50.072;7.036;2022-09-09T09:24:13;22.30;99.90
15426;DHT22;7812;50.072;7.036;2022-09-09T09:26:43;21.50;99.90
15426;DHT22;7812;50.072;7.036;2022-09-09T09:29:15;21.30;99.90
15426;DHT22;7812;50.072;7.036;2022-09-09T09:31:53;21.00;99.90
15426;DHT22;7812;50.072;7.036;2022-09-09T09:34:20;20.50;99.90
15426;DHT22;7812;50.072;7.036;2022-09-09T09:36:54;20.20;99.90
15426;DHT22;7812;50.072;7.036;2022-09-09T09:39:29;20.40;99.90
15426;DHT22;7812;50.072;7.036;2022-09-09T09:41:55;20.60;99.90
15426;DHT22;7812;50.072;7.036;2022-09-09T09:44:31;20.50;99.90
15426;DHT22;7812;50.072;7.036;2022-09-09T09:47:15;20.10;99.90
15426;DHT22;7812;50.072;7.036;2022-09-09T09:50:00;19.60;99.90
15426;DHT22;7812;50.072;7.036;2022-09-09T09:52:30;19.30;99.90
15426;DHT22;7812;50.072;7.036;2022-09-09T09:54:57;19.10;99.90
15426;DHT22;7812;50.072;7.036;2022-09-09T09:57:29;19.20;99.90
15426;DHT22;7812;50.072;7.036;2022-09-09T10:00:12;20.00;99.90
15426;DHT22;7812;50.072;7.036;2022-09-09T10:02:41;21.30;99.90
15426;DHT22;7812;50.072;7.036;2022-09-09T10:05:46;22.70;99.90
15426;DHT22;7812;50.072;7.036;2022-09-09T10:08:15;24.40;99.90
15426;DHT22;7812;50.072;7.036;2022-09-09T10:19:37;23.00;99.90
15426;DHT22;7812;50.072;7.036;2022-09-09T10:21:57;22.80;99.90
15426;DHT22;7812;50.072;7.036;2022-09-09T10:24:42;22.10;99.90
15426;DHT22;7812;50.072;7.036;2022-09-09T10:30:18;21.60;99.90
15426;DHT22;7812;50.072;7.036;2022-09-09T10:33:10;21.80;99.90
15426;DHT22;7812;50.072;7.036;2022-09-09T10:38:43;25.40;99.90
15426;DHT22;7812;50.072;7.036;2022-09-09T10:41:46;25.40;99.90
15426;DHT22;7812;50.072;7.036;2022-09-09T10:47:39;24.00;99.90
15426;DHT22;7812;50.072;7.036;2022-09-09T10:50:52;24.80;99.90
15426;DHT22;7812;50.072;7.036;2022-09-09T10:53:37;25.50;99.90
15426;DHT22;7812;50.072;7.036;2022-09-09T10:56:13;24.10;99.90
15426;DHT22;7812;50.072;7.036;2022-09-09T10:58:47;24.60;99.90
15426;DHT22;7812;50.072;7.036;2022-09-09T11:01:20;25.10;99.90
15426;DHT22;7812;50.072;7.036;2022-09-09T11:03:54;26.40;99.90
15426;DHT22;7812;50.072;7.036;2022-09-09T11:06:34;27.60;99.90
15426;DHT22;7812;50.072;7.036;2022-09-09T11:09:02;27.40;99.90
15426;DHT22;7812;50.072;7.036;2022-09-09T11:11:36;27.50;99.90
15426;DHT22;7812;50.072;7.036;2022-09-09T11:14:14;25.10;99.90
15426;DHT22;7812;50.072;7.036;2022-09-09T11:22:07;26.80;99.90
15426;DHT22;7812;50.072;7.036;2022-09-09T11:28:05;25.80;99.90
15426;DHT22;7812;50.072;7.036;2022-09-09T11:41:42;23.40;99.90
15426;DHT22;7812;50.072;7.036;2022-09-09T11:44:16;23.10;99.90
15426;DHT22;7812;50.072;7.036;2022-09-09T11:46:51;22.50;99.90
15426;DHT22;7812;50.072;7.036;2022-09-09T11:49:41;21.90;99.90
15426;DHT22;7812;50.072;7.036;2022-09-09T11:52:39;21.90;99.90
15426;DHT22;7812;50.072;7.036;2022-09-09T11:55:28;22.60;99.90
15426;DHT22;7812;50.072;7.036;2022-09-09T11:58:17;22.90;99.90
15426;DHT22;7812;50.072;7.036;2022-09-09T12:00:49;22.60;99.90
15426;DHT22;7812;50.072;7.036;2022-09-09T12:03:41;22.60;99.90
15426;DHT22;7812;50.072;7.036;2022-09-09T12:06:27;23.00;99.90
15426;DHT22;7812;50.072;7.036;2022-09-09T12:12:06;23.00;99.90
15426;DHT22;7812;50.072;7.036;2022-09-09T12:19:42;25.80;99.90
15426;DHT22;7812;50.072;7.036;2022-09-09T12:25:33;26.50;99.90
15426;DHT22;7812;50.072;7.036;2022-09-09T12:28:14;26.40;99.90
15426;DHT22;7812;50.072;7.036;2022-09-09T12:33:38;25.40;99.90
15426;DHT22;7812;50.072;7.036;2022-09-09T12:36:32;24.10;99.90
15426;DHT22;7812;50.072;7.036;2022-09-09T12:39:10;23.10;99.90
15426;DHT22;7812;50.072;7.036;2022-09-09T12:41:41;22.60;99.90
15426;DHT22;7812;50.072;7.036;2022-09-09T12:44:09;22.60;99.90
15426;DHT22;7812;50.072;7.036;2022-09-09T12:46:39;22.80;99.90
15426;DHT22;7812;50.072;7.036;2022-09-09T12:51:52;23.20;99.90
15426;DHT22;7812;50.072;7.036;2022-09-09T12:54:19;24.10;99.90
15426;DHT22;7812;50.072;7.036;2022-09-09T12:56:46;25.10;99.90
15426;DHT22;7812;50.072;7.036;2022-09-09T12:59:37;26.00;99.90
15426;DHT22;7812;50.072;7.036;2022-09-09T13:02:26;27.10;99.90
15426;DHT22;7812;50.072;7.036;2022-09-09T13:04:53;27.10;99.90
15426;DHT22;7812;50.072;7.036;2022-09-09T13:07:20;26.70;99.90
15426;DHT22;7812;50.072;7.036;2022-09-09T13:09:48;25.80;99.90
15426;DHT22;7812;50.072;7.036;2022-09-09T13:12:18;25.30;99.90
15426;DHT22;7812;50.072;7.036;2022-09-09T13:14:47;25.50;99.90
15426;DHT22;7812;50.072;7.036;2022-09-09T13:17:24;25.10;99.90
15426;DHT22;7812;50.072;7.036;2022-09-09T13:19:51;24.50;99.90
15426;DHT22;7812;50.072;7.036;2022-09-09T13:27:35;24.10;99.90
15426;DHT22;7812;50.072;7.036;2022-09-09T13:30:24;23.70;99.90
15426;DHT22;7812;50.072;7.036;2022-09-09T13:33:22;23.40;99.90
15426;DHT22;7812;50.072;7.036;2022-09-09T13:35:58;22.90;99.90
15426;DHT22;7812;50.072;7.036;2022-09-09T13:38:25;22.10;99.90
15426;DHT22;7812;50.072;7.036;2022-09-09T13:40:59;22.10;99.90
15426;DHT22;7812;50.072;7.036;2022-09-09T13:43:28;22.00;99.90
15426;DHT22;7812;50.072;7.036;2022-09-09T13:45:57;21.70;99.90
15426;DHT22;7812;50.072;7.036;2022-09-09T13:48:24;21.10;99.90
15426;DHT22;7812;50.072;7.036;2022-09-09T13:51:02;20.90;99.90
15426;DHT22;7812;50.072;7.036;2022-09-09T13:53:30;20.70;99.90
15426;DHT22;7812;50.072;7.036;2022-09-09T13:55:56;20.60;99.90
15426;DHT22;7812;50.072;7.036;2022-09-09T13:58:22;20.10;99.90
15426;DHT22;7812;50.072;7.036;2022-09-09T14:00:48;19.40;99.90
15426;DHT22;7812;50.072;7.036;2022-09-09T14:03:15;18.80;99.90
15426;DHT22;7812;50.072;7.036;2022-09-09T14:05:41;18.20;99.90
15426;DHT22;7812;50.072;7.036;2022-09-09T14:08:15;17.90;99.90
15426;DHT22;7812;50.072;7.036;2022-09-09T14:10:41;17.70;99.90
15426;DHT22;7812;50.072;7.036;2022-09-09T14:13:07;17.60;99.90
15426;DHT22;7812;50.072;7.036;2022-09-09T14:15:33;17.70;99.90
15426;DHT22;7812;50.072;7.036;2022-09-09T14:17:59;17.80;99.90
15426;DHT22;7812;50.072;7.036;2022-09-09T14:20:24;18.00;99.90
15426;DHT22;7812;50.072;7.036;2022-09-09T14:22:50;18.10;99.90
15426;DHT22;7812;50.072;7.036;2022-09-09T14:25:16;18.20;99.90
15426;DHT22;7812;50.072;7.036;2022-09-09T14:27:42;18.30;99.90
15426;DHT22;7812;50.072;7.036;2022-09-09T14:30:09;18.50;99.90
15426;DHT22;7812;50.072;7.036;2022-09-09T14:32:35;18.90;99.90
15426;DHT22;7812;50.072;7.036;2022-09-09T14:35:01;19.10;99.90
15426;DHT22;7812;50.072;7.036;2022-09-09T14:37:27;19.30;99.90
15426;DHT22;7812;50.072;7.036;2022-09-09T14:39:53;19.30;99.90
15426;DHT22;7812;50.072;7.036;2022-09-09T14:42:19;18.90;99.90
15426;DHT22;7812;50.072;7.036;2022-09-09T14:44:45;18.80;99.90
15426;DHT22;7812;50.072;7.036;2022-09-09T14:47:11;18.50;99.90
15426;DHT22;7812;50.072;7.036;2022-09-09T14:49:37;18.40;99.90
15426;DHT22;7812;50.072;7.036;2022-09-09T14:52:04;18.20;99.90
15426;DHT22;7812;50.072;7.036;2022-09-09T14:54:30;18.10;99.90
15426;DHT22;7812;50.072;7.036;2022-09-09T14:56:56;18.00;99.90
15426;DHT22;7812;50.072;7.036;2022-09-09T14:59:23;17.90;99.90
15426;DHT22;7812;50.072;7.036;2022-09-09T15:01:48;17.70;99.90
15426;DHT22;7812;50.072;7.036;2022-09-09T15:04:14;17.60;99.90
15426;DHT22;7812;50.072;7.036;2022-09-09T15:06:43;17.50;99.90
15426;DHT22;7812;50.072;7.036;2022-09-09T15:09:14;17.40;99.90
15426;DHT22;7812;50.072;7.036;2022-09-09T15:11:39;17.20;99.90
15426;DHT22;7812;50.072;7.036;2022-09-09T15:14:06;17.10;99.90
15426;DHT22;7812;50.072;7.036;2022-09-09T15:16:32;17.10;99.90
15426;DHT22;7812;50.072;7.036;2022-09-09T15:19:00;17.10;99.90
15426;DHT22;7812;50.072;7.036;2022-09-09T15:21:30;17.10;99.90
15426;DHT22;7812;50.072;7.036;2022-09-09T15:23:57;17.10;99.90
15426;DHT22;7812;50.072;7.036;2022-09-09T15:26:24;17.10;99.90
15426;DHT22;7812;50.072;7.036;2022-09-09T15:28:50;17.00;99.90
15426;DHT22;7812;50.072;7.036;2022-09-09T15:31:28;16.90;99.90
15426;DHT22;7812;50.072;7.036;2022-09-09T15:33:55;16.80;99.90
15426;DHT22;7812;50.072;7.036;2022-09-09T15:36:28;16.60;99.90
15426;DHT22;7812;50.072;7.036;2022-09-09T15:38:54;16.60;99.90
15426;DHT22;7812;50.072;7.036;2022-09-09T15:41:21;16.60;99.90
15426;DHT22;7812;50.072;7.036;2022-09-09T15:43:49;16.60;99.90
15426;DHT22;7812;50.072;7.036;2022-09-09T15:48:54;16.50;99.90
15426;DHT22;7812;50.072;7.036;2022-09-09T15:51:21;16.50;99.90
15426;DHT22;7812;50.072;7.036;2022-09-09T15:53:47;16.50;99.90
15426;DHT22;7812;50.072;7.036;2022-09-09T15:56:13;16.50;99.90
15426;DHT22;7812;50.072;7.036;2022-09-09T15:58:39;16.50;99.90
15426;DHT22;7812;50.072;7.036;2022-09-09T16:01:07;16.60;99.90
15426;DHT22;7812;50.072;7.036;2022-09-09T16:03:40;16.60;99.90
15426;DHT22;7812;50.072;7.036;2022-09-09T16:06:16;16.80;99.90
15426;DHT22;7812;50.072;7.036;2022-09-09T16:08:43;17.00;99.90
15426;DHT22;7812;50.072;7.036;2022-09-09T16:13:38;17.50;99.90
15426;DHT22;7812;50.072;7.036;2022-09-09T16:16:10;17.60;99.90
15426;DHT22;7812;50.072;7.036;2022-09-09T16:18:41;17.90;99.90
15426;DHT22;7812;50.072;7.036;2022-09-09T16:21:07;18.00;99.90
15426;DHT22;7812;50.072;7.036;2022-09-09T16:23:34;17.70;99.90
15426;DHT22;7812;50.072;7.036;2022-09-09T16:26:01;17.80;99.90
15426;DHT22;7812;50.072;7.036;2022-09-09T16:28:27;17.90;99.90
15426;DHT22;7812;50.072;7.036;2022-09-09T16:30:53;18.00;99.90
15426;DHT22;7812;50.072;7.036;2022-09-09T16:33:19;18.10;99.90
15426;DHT22;7812;50.072;7.036;2022-09-09T16:35:45;18.00;99.90
15426;DHT22;7812;50.072;7.036;2022-09-09T16:38:11;18.00;99.90
15426;DHT22;7812;50.072;7.036;2022-09-09T16:40:37;17.90;99.90
15426;DHT22;7812;50.072;7.036;2022-09-09T16:43:04;17.70;99.90
15426;DHT22;7812;50.072;7.036;2022-09-09T16:45:31;17.80;99.90
15426;DHT22;7812;50.072;7.036;2022-09-09T16:47:58;17.60;99.90
15426;DHT22;7812;50.072;7.036;2022-09-09T16:50:24;17.60;99.90
15426;DHT22;7812;50.072;7.036;2022-09-09T16:52:51;17.40;99.90
15426;DHT22;7812;50.072;7.036;2022-09-09T16:55:17;17.30;99.90
15426;DHT22;7812;50.072;7.036;2022-09-09T16:57:46;17.30;99.90
15426;DHT22;7812;50.072;7.036;2022-09-09T17:00:14;17.30;99.90
15426;DHT22;7812;50.072;7.036;2022-09-09T17:02:42;17.30;99.90
15426;DHT22;7812;50.072;7.036;2022-09-09T17:05:08;17.20;99.90
15426;DHT22;7812;50.072;7.036;2022-09-09T17:07:35;17.30;99.90
15426;DHT22;7812;50.072;7.036;2022-09-09T17:10:01;17.30;99.90
15426;DHT22;7812;50.072;7.036;2022-09-09T17:12:27;17.30;99.90
15426;DHT22;7812;50.072;7.036;2022-09-09T17:14:56;16.90;99.90
15426;DHT22;7812;50.072;7.036;2022-09-09T17:17:22;16.60;99.90
15426;DHT22;7812;50.072;7.036;2022-09-09T17:19:48;16.60;99.90
15426;DHT22;7812;50.072;7.036;2022-09-09T17:22:15;16.50;99.90
15426;DHT22;7812;50.072;7.036;2022-09-09T17:24:41;16.50;99.90
15426;DHT22;7812;50.072;7.036;2022-09-09T17:27:07;16.50;99.90
15426;DHT22;7812;50.072;7.036;2022-09-09T17:29:34;16.60;99.90
15426;DHT22;7812;50.072;7.036;2022-09-09T17:32:02;16.80;99.90
15426;DHT22;7812;50.072;7.036;2022-09-09T17:34:28;16.70;99.90
15426;DHT22;7812;50.072;7.036;2022-09-09T17:36:54;16.80;99.90
15426;DHT22;7812;50.072;7.036;2022-09-09T17:39:25;16.70;99.90
15426;DHT22;7812;50.072;7.036;2022-09-09T17:41:51;16.70;99.90
15426;DHT22;7812;50.072;7.036;2022-09-09T17:44:18;16.70;99.90
15426;DHT22;7812;50.072;7.036;2022-09-09T17:46:45;16.70;99.90
15426;DHT22;7812;50.072;7.036;2022-09-09T17:49:13;16.70;99.90
15426;DHT22;7812;50.072;7.036;2022-09-09T17:51:40;16.60;99.90
15426;DHT22;7812;50.072;7.036;2022-09-09T17:54:09;16.50;99.90
15426;DHT22;7812;50.072;7.036;2022-09-09T17:56:37;16.60;99.90
15426;DHT22;7812;50.072;7.036;2022-09-09T17:59:05;16.50;99.90
15426;DHT22;7812;50.072;7.036;2022-09-09T18:01:33;16.30;99.90
15426;DHT22;7812;50.072;7.036;2022-09-09T18:04:01;16.30;99.90
15426;DHT22;7812;50.072;7.036;2022-09-09T18:06:32;16.20;99.90
15426;DHT22;7812;50.072;7.036;2022-09-09T18:09:06;16.20;99.90
15426;DHT22;7812;50.072;7.036;2022-09-09T18:11:35;16.10;99.90
15426;DHT22;7812;50.072;7.036;2022-09-09T18:14:04;15.90;99.90
15426;DHT22;7812;50.072;7.036;2022-09-09T18:16:32;15.80;99.90